XSN02L LPPT-LEMG
Flight info
| Callsign | XSN02L |
|---|---|
| Flight time | 1h 38m |
| Altitude | 7000 |
| Route | DUZOP DCT MINTA/N0177F080 DCT OSLEP DCT NAPES DCT ONUBA DCT PIMUR DCT SVL |
| Aircraft | C208/L-SDFGR/C |
Departure
| Time | 2026-05-07 05:04 |
|---|---|
| Airport | Lisbon Humberto Delgado Airport (LPPT) |
Arrival
| Time | 2026-05-07 06:42 |
|---|---|
| Airport | Málaga-Costa del Sol Airport (LEMG) |
| Time | Latitude | Longitude | Altitude | Speed | Heading |
|---|---|---|---|---|---|
| 2026-05-07 05:02 | 38.76672 | -9.14373 | 333 ft | 0 kts | 22° |
| 2026-05-07 05:03 | 38.76788 | -9.14312 | 337 ft | 51 kts | 22° |
| 2026-05-07 05:04 | 38.77273 | -9.14043 | 439 ft | 92 kts | 21° |
| 2026-05-07 05:04 | 38.77851 | -9.13656 | 745 ft | 98 kts | 29° |
| 2026-05-07 05:04 | 38.78450 | -9.13161 | 999 ft | 111 kts | 27° |
| 2026-05-07 05:04 | 38.79150 | -9.12650 | 1264 ft | 119 kts | 26° |
| 2026-05-07 05:05 | 38.79883 | -9.12138 | 1532 ft | 120 kts | 24° |
| 2026-05-07 05:05 | 38.80625 | -9.11629 | 1795 ft | 122 kts | 24° |
| 2026-05-07 05:05 | 38.81374 | -9.11112 | 2058 ft | 122 kts | 22° |
| 2026-05-07 05:05 | 38.82127 | -9.10596 | 2321 ft | 123 kts | 24° |
| 2026-05-07 05:06 | 38.82846 | -9.09995 | 2555 ft | 128 kts | 45° |
| 2026-05-07 05:06 | 38.83036 | -9.08848 | 2807 ft | 141 kts | 96° |
| 2026-05-07 05:06 | 38.82627 | -9.07709 | 3065 ft | 141 kts | 117° |
| 2026-05-07 05:06 | 38.82166 | -9.06602 | 3338 ft | 140 kts | 115° |
| 2026-05-07 05:07 | 38.81736 | -9.05502 | 3592 ft | 139 kts | 115° |
| 2026-05-07 05:07 | 38.81303 | -9.04383 | 3843 ft | 141 kts | 115° |
| 2026-05-07 05:07 | 38.80870 | -9.03256 | 4097 ft | 141 kts | 116° |
| 2026-05-07 05:07 | 38.80436 | -9.02128 | 4351 ft | 141 kts | 117° |
| 2026-05-07 05:08 | 38.80001 | -9.00998 | 4608 ft | 141 kts | 118° |
| 2026-05-07 05:08 | 38.79567 | -8.99871 | 4861 ft | 141 kts | 118° |
| 2026-05-07 05:08 | 38.79134 | -8.98747 | 5109 ft | 140 kts | 118° |
| 2026-05-07 05:08 | 38.78704 | -8.97628 | 5360 ft | 140 kts | 119° |
| 2026-05-07 05:09 | 38.78275 | -8.96515 | 5615 ft | 139 kts | 120° |
| 2026-05-07 05:09 | 38.77847 | -8.95405 | 5872 ft | 139 kts | 120° |
| 2026-05-07 05:09 | 38.77421 | -8.94301 | 6125 ft | 138 kts | 121° |
| 2026-05-07 05:09 | 38.76997 | -8.93204 | 6379 ft | 137 kts | 121° |
| 2026-05-07 05:10 | 38.76574 | -8.92110 | 6618 ft | 137 kts | 121° |
| 2026-05-07 05:10 | 38.76143 | -8.90995 | 6790 ft | 141 kts | 121° |
| 2026-05-07 05:10 | 38.75705 | -8.89857 | 6968 ft | 144 kts | 121° |
| 2026-05-07 05:10 | 38.75261 | -8.88703 | 7140 ft | 145 kts | 121° |
| 2026-05-07 05:11 | 38.74817 | -8.87551 | 7313 ft | 146 kts | 121° |
| 2026-05-07 05:11 | 38.74365 | -8.86381 | 7488 ft | 147 kts | 120° |
| 2026-05-07 05:11 | 38.73910 | -8.85204 | 7664 ft | 147 kts | 120° |
| 2026-05-07 05:11 | 38.73454 | -8.84026 | 7841 ft | 148 kts | 120° |
| 2026-05-07 05:12 | 38.72996 | -8.82844 | 8020 ft | 148 kts | 120° |
| 2026-05-07 05:12 | 38.72539 | -8.81664 | 8198 ft | 148 kts | 120° |
| 2026-05-07 05:12 | 38.72082 | -8.80482 | 8364 ft | 148 kts | 120° |
| 2026-05-07 05:12 | 38.71626 | -8.79310 | 8542 ft | 148 kts | 120° |
| 2026-05-07 05:13 | 38.71166 | -8.78122 | 8723 ft | 149 kts | 120° |
| 2026-05-07 05:13 | 38.70704 | -8.76929 | 8902 ft | 149 kts | 120° |
| 2026-05-07 05:13 | 38.70391 | -8.76122 | 8919 ft | 156 kts | 120° |
| 2026-05-07 05:13 | 38.69898 | -8.74856 | 8929 ft | 161 kts | 120° |
| 2026-05-07 05:14 | 38.69231 | -8.73131 | 8934 ft | 165 kts | 120° |
| 2026-05-07 05:14 | 38.68720 | -8.71809 | 8937 ft | 166 kts | 120° |
| 2026-05-07 05:14 | 38.68380 | -8.70930 | 8936 ft | 165 kts | 120° |
| 2026-05-07 05:14 | 38.67868 | -8.69614 | 8938 ft | 166 kts | 120° |
| 2026-05-07 05:15 | 38.67354 | -8.68294 | 8937 ft | 166 kts | 120° |
| 2026-05-07 05:15 | 38.66841 | -8.66974 | 8946 ft | 165 kts | 120° |
| 2026-05-07 05:15 | 38.66327 | -8.65654 | 8945 ft | 165 kts | 120° |
| 2026-05-07 05:15 | 38.65813 | -8.64336 | 8942 ft | 165 kts | 120° |
| 2026-05-07 05:16 | 38.65299 | -8.63015 | 8943 ft | 166 kts | 120° |
| 2026-05-07 05:16 | 38.64790 | -8.61709 | 8943 ft | 166 kts | 120° |
| 2026-05-07 05:16 | 38.64275 | -8.60389 | 8942 ft | 166 kts | 120° |
| 2026-05-07 05:16 | 38.63761 | -8.59070 | 8941 ft | 166 kts | 120° |
| 2026-05-07 05:17 | 38.63245 | -8.57750 | 8943 ft | 166 kts | 120° |
| 2026-05-07 05:17 | 38.62730 | -8.56430 | 8943 ft | 166 kts | 120° |
| 2026-05-07 05:17 | 38.62214 | -8.55112 | 8941 ft | 166 kts | 120° |
| 2026-05-07 05:17 | 38.61699 | -8.53792 | 8945 ft | 165 kts | 120° |
| 2026-05-07 05:18 | 38.61183 | -8.52473 | 8943 ft | 166 kts | 120° |
| 2026-05-07 05:18 | 38.60667 | -8.51154 | 8944 ft | 166 kts | 120° |
| 2026-05-07 05:18 | 38.60163 | -8.49864 | 8941 ft | 160 kts | 120° |
| 2026-05-07 05:18 | 38.59681 | -8.48625 | 8932 ft | 153 kts | 120° |
| 2026-05-07 05:19 | 38.59206 | -8.47410 | 8926 ft | 149 kts | 121° |
| 2026-05-07 05:19 | 38.58748 | -8.46245 | 8926 ft | 148 kts | 121° |
| 2026-05-07 05:19 | 38.58287 | -8.45075 | 8927 ft | 147 kts | 120° |
| 2026-05-07 05:19 | 38.57830 | -8.43908 | 8928 ft | 147 kts | 120° |
| 2026-05-07 05:20 | 38.57372 | -8.42742 | 8928 ft | 146 kts | 120° |
| 2026-05-07 05:20 | 38.56915 | -8.41577 | 8927 ft | 147 kts | 120° |
| 2026-05-07 05:20 | 38.56457 | -8.40411 | 8927 ft | 147 kts | 120° |
| 2026-05-07 05:20 | 38.56004 | -8.39258 | 8926 ft | 147 kts | 120° |
| 2026-05-07 05:21 | 38.55546 | -8.38092 | 8929 ft | 146 kts | 120° |
| 2026-05-07 05:21 | 38.54633 | -8.35770 | 8928 ft | 146 kts | 120° |
| 2026-05-07 05:21 | 38.54176 | -8.34606 | 8928 ft | 147 kts | 120° |
| 2026-05-07 05:22 | 38.53720 | -8.33446 | 8926 ft | 146 kts | 121° |
| 2026-05-07 05:22 | 38.53266 | -8.32292 | 8926 ft | 145 kts | 121° |
| 2026-05-07 05:22 | 38.52813 | -8.31142 | 8925 ft | 144 kts | 121° |
| 2026-05-07 05:22 | 38.52360 | -8.29992 | 8926 ft | 146 kts | 121° |
| 2026-05-07 05:23 | 38.51895 | -8.28817 | 8931 ft | 150 kts | 121° |
| 2026-05-07 05:23 | 38.51423 | -8.27617 | 8935 ft | 152 kts | 121° |
| 2026-05-07 05:23 | 38.50941 | -8.26398 | 8936 ft | 155 kts | 121° |
| 2026-05-07 05:23 | 38.50452 | -8.25158 | 8815 ft | 157 kts | 120° |
| 2026-05-07 05:24 | 38.49963 | -8.23930 | 8943 ft | 153 kts | 117° |
| 2026-05-07 05:24 | 38.49485 | -8.22709 | 8999 ft | 156 kts | 117° |
| 2026-05-07 05:24 | 38.48977 | -8.21431 | 8994 ft | 169 kts | 116° |
| 2026-05-07 05:24 | 38.48418 | -8.20027 | 8996 ft | 185 kts | 116° |
| 2026-05-07 05:25 | 38.47827 | -8.18518 | 9004 ft | 194 kts | 116° |
| 2026-05-07 05:25 | 38.47227 | -8.16984 | 9015 ft | 198 kts | 115° |
| 2026-05-07 05:25 | 38.46588 | -8.15385 | 9011 ft | 206 kts | 116° |
| 2026-05-07 05:25 | 38.45931 | -8.13729 | 9018 ft | 210 kts | 116° |
| 2026-05-07 05:26 | 38.45271 | -8.12053 | 9012 ft | 212 kts | 116° |
| 2026-05-07 05:26 | 38.44603 | -8.10367 | 9016 ft | 214 kts | 116° |
| 2026-05-07 05:26 | 38.43931 | -8.08672 | 9009 ft | 215 kts | 116° |
| 2026-05-07 05:26 | 38.43256 | -8.06971 | 9012 ft | 215 kts | 116° |
| 2026-05-07 05:27 | 38.42580 | -8.05266 | 9011 ft | 215 kts | 116° |
| 2026-05-07 05:27 | 38.41903 | -8.03563 | 9008 ft | 215 kts | 116° |
| 2026-05-07 05:27 | 38.41226 | -8.01859 | 9009 ft | 216 kts | 116° |
| 2026-05-07 05:27 | 38.40557 | -8.00176 | 9020 ft | 215 kts | 116° |
| 2026-05-07 05:28 | 38.39975 | -7.98430 | 8993 ft | 212 kts | 96° |
| 2026-05-07 05:28 | 38.39908 | -7.96595 | 8999 ft | 206 kts | 82° |
| 2026-05-07 05:28 | 38.39633 | -7.94766 | 8995 ft | 215 kts | 110° |
| 2026-05-07 05:28 | 38.38910 | -7.93098 | 9000 ft | 216 kts | 122° |
| 2026-05-07 05:29 | 38.38152 | -7.91442 | 9002 ft | 216 kts | 118° |
| 2026-05-07 05:29 | 38.37464 | -7.89733 | 9003 ft | 217 kts | 115° |
| 2026-05-07 05:29 | 38.36789 | -7.88016 | 9004 ft | 217 kts | 116° |
| 2026-05-07 05:29 | 38.36100 | -7.86301 | 9000 ft | 217 kts | 116° |
| 2026-05-07 05:30 | 38.35411 | -7.84599 | 9002 ft | 216 kts | 116° |
| 2026-05-07 05:30 | 38.34724 | -7.82894 | 9002 ft | 216 kts | 116° |
| 2026-05-07 05:30 | 38.34037 | -7.81192 | 9001 ft | 215 kts | 116° |
| 2026-05-07 05:30 | 38.33361 | -7.79516 | 9001 ft | 215 kts | 116° |
| 2026-05-07 05:31 | 38.32675 | -7.77818 | 9001 ft | 215 kts | 116° |
| 2026-05-07 05:31 | 38.31988 | -7.76119 | 9002 ft | 216 kts | 116° |
| 2026-05-07 05:31 | 38.31302 | -7.74421 | 9000 ft | 216 kts | 116° |
| 2026-05-07 05:31 | 38.30614 | -7.72720 | 9001 ft | 216 kts | 116° |
| 2026-05-07 05:32 | 38.29927 | -7.71023 | 8998 ft | 216 kts | 116° |
| 2026-05-07 05:32 | 38.29238 | -7.69323 | 9002 ft | 215 kts | 116° |
| 2026-05-07 05:32 | 38.28552 | -7.67631 | 9002 ft | 215 kts | 116° |
| 2026-05-07 05:32 | 38.27868 | -7.65945 | 8999 ft | 214 kts | 116° |
| 2026-05-07 05:33 | 38.27183 | -7.64258 | 8992 ft | 213 kts | 116° |
| 2026-05-07 05:33 | 38.26506 | -7.62584 | 9006 ft | 213 kts | 116° |
| 2026-05-07 05:33 | 38.25829 | -7.60926 | 8998 ft | 214 kts | 116° |
| 2026-05-07 05:33 | 38.25147 | -7.59249 | 9005 ft | 214 kts | 116° |
| 2026-05-07 05:34 | 38.24462 | -7.57558 | 9003 ft | 215 kts | 116° |
| 2026-05-07 05:34 | 38.23777 | -7.55871 | 8998 ft | 214 kts | 116° |
| 2026-05-07 05:34 | 38.23093 | -7.54192 | 9003 ft | 214 kts | 116° |
| 2026-05-07 05:34 | 38.22403 | -7.52501 | 9002 ft | 214 kts | 116° |
| 2026-05-07 05:35 | 38.21718 | -7.50816 | 9002 ft | 215 kts | 116° |
| 2026-05-07 05:35 | 38.21027 | -7.49123 | 9004 ft | 215 kts | 116° |
| 2026-05-07 05:35 | 38.20346 | -7.47457 | 9006 ft | 215 kts | 116° |
| 2026-05-07 05:35 | 38.19659 | -7.45771 | 9005 ft | 215 kts | 116° |
| 2026-05-07 05:36 | 38.18971 | -7.44081 | 9008 ft | 215 kts | 117° |
| 2026-05-07 05:36 | 38.18283 | -7.42398 | 9010 ft | 215 kts | 117° |
| 2026-05-07 05:36 | 38.17595 | -7.40713 | 9011 ft | 214 kts | 117° |
| 2026-05-07 05:36 | 38.16907 | -7.39032 | 9003 ft | 214 kts | 117° |
| 2026-05-07 05:37 | 38.16217 | -7.37348 | 9004 ft | 215 kts | 117° |
| 2026-05-07 05:37 | 38.15524 | -7.35656 | 9005 ft | 215 kts | 117° |
| 2026-05-07 05:37 | 38.14838 | -7.33981 | 9005 ft | 215 kts | 117° |
| 2026-05-07 05:37 | 38.14144 | -7.32287 | 9013 ft | 215 kts | 117° |
| 2026-05-07 05:38 | 38.13461 | -7.30624 | 9003 ft | 215 kts | 117° |
| 2026-05-07 05:38 | 38.12771 | -7.28940 | 9007 ft | 215 kts | 117° |
| 2026-05-07 05:38 | 38.12081 | -7.27257 | 9002 ft | 214 kts | 117° |
| 2026-05-07 05:38 | 38.11397 | -7.25595 | 9007 ft | 215 kts | 117° |
| 2026-05-07 05:39 | 38.10706 | -7.23913 | 9001 ft | 214 kts | 117° |
| 2026-05-07 05:39 | 38.10016 | -7.22237 | 9011 ft | 215 kts | 117° |
| 2026-05-07 05:39 | 38.09324 | -7.20550 | 9001 ft | 215 kts | 117° |
| 2026-05-07 05:39 | 38.08628 | -7.18863 | 9003 ft | 216 kts | 117° |
| 2026-05-07 05:40 | 38.07933 | -7.17174 | 9002 ft | 216 kts | 117° |
| 2026-05-07 05:40 | 38.07238 | -7.15486 | 8999 ft | 216 kts | 117° |
| 2026-05-07 05:40 | 38.06544 | -7.13800 | 9003 ft | 216 kts | 117° |
| 2026-05-07 05:40 | 38.05845 | -7.12111 | 9007 ft | 216 kts | 117° |
| 2026-05-07 05:41 | 38.05158 | -7.10445 | 9003 ft | 216 kts | 117° |
| 2026-05-07 05:41 | 38.04462 | -7.08755 | 9001 ft | 215 kts | 117° |
| 2026-05-07 05:41 | 38.03763 | -7.07077 | 9003 ft | 215 kts | 117° |
| 2026-05-07 05:41 | 38.03068 | -7.05388 | 9002 ft | 216 kts | 117° |
| 2026-05-07 05:42 | 38.02375 | -7.03699 | 9009 ft | 216 kts | 117° |
| 2026-05-07 05:42 | 38.01674 | -7.02019 | 8998 ft | 215 kts | 117° |
| 2026-05-07 05:42 | 38.00976 | -7.00342 | 9008 ft | 215 kts | 117° |
| 2026-05-07 05:42 | 38.00291 | -6.98675 | 8997 ft | 214 kts | 117° |
| 2026-05-07 05:43 | 37.99602 | -6.97001 | 9003 ft | 213 kts | 117° |
| 2026-05-07 05:43 | 37.98906 | -6.95329 | 9006 ft | 213 kts | 117° |
| 2026-05-07 05:43 | 37.98211 | -6.93665 | 9007 ft | 214 kts | 117° |
| 2026-05-07 05:43 | 37.97517 | -6.91989 | 9003 ft | 215 kts | 117° |
| 2026-05-07 05:44 | 37.96822 | -6.90315 | 9003 ft | 214 kts | 117° |
| 2026-05-07 05:44 | 37.96127 | -6.88645 | 9000 ft | 216 kts | 117° |
| 2026-05-07 05:44 | 37.95429 | -6.86962 | 9008 ft | 216 kts | 117° |
| 2026-05-07 05:44 | 37.94729 | -6.85277 | 9003 ft | 216 kts | 117° |
| 2026-05-07 05:45 | 37.94023 | -6.83590 | 9009 ft | 216 kts | 117° |
| 2026-05-07 05:45 | 37.93320 | -6.81900 | 8999 ft | 217 kts | 117° |
| 2026-05-07 05:45 | 37.92624 | -6.80222 | 9017 ft | 215 kts | 117° |
| 2026-05-07 05:45 | 37.91935 | -6.78568 | 8996 ft | 213 kts | 117° |
| 2026-05-07 05:46 | 37.91241 | -6.76909 | 9007 ft | 213 kts | 117° |
| 2026-05-07 05:46 | 37.90542 | -6.75245 | 9014 ft | 214 kts | 117° |
| 2026-05-07 05:46 | 37.89842 | -6.73568 | 9008 ft | 215 kts | 117° |
| 2026-05-07 05:46 | 37.89138 | -6.71883 | 9006 ft | 217 kts | 117° |
| 2026-05-07 05:47 | 37.88434 | -6.70193 | 9007 ft | 216 kts | 117° |
| 2026-05-07 05:47 | 37.87734 | -6.68510 | 8999 ft | 213 kts | 117° |
| 2026-05-07 05:47 | 37.87056 | -6.66887 | 9009 ft | 211 kts | 118° |
| 2026-05-07 05:47 | 37.86349 | -6.65232 | 9001 ft | 210 kts | 118° |
| 2026-05-07 05:48 | 37.85665 | -6.63615 | 8997 ft | 210 kts | 117° |
| 2026-05-07 05:48 | 37.84986 | -6.61955 | 8999 ft | 214 kts | 117° |
| 2026-05-07 05:48 | 37.84295 | -6.60298 | 8998 ft | 213 kts | 118° |
| 2026-05-07 05:48 | 37.83586 | -6.58617 | 9000 ft | 214 kts | 117° |
| 2026-05-07 05:49 | 37.82896 | -6.56976 | 9000 ft | 214 kts | 117° |
| 2026-05-07 05:49 | 37.82200 | -6.55312 | 8996 ft | 212 kts | 117° |
| 2026-05-07 05:49 | 37.81508 | -6.53671 | 9014 ft | 211 kts | 118° |
| 2026-05-07 05:49 | 37.80811 | -6.52029 | 9002 ft | 212 kts | 117° |
| 2026-05-07 05:50 | 37.80119 | -6.50368 | 9016 ft | 215 kts | 118° |
| 2026-05-07 05:50 | 37.79412 | -6.48704 | 9011 ft | 214 kts | 118° |
| 2026-05-07 05:50 | 37.78717 | -6.47038 | 8999 ft | 213 kts | 117° |
| 2026-05-07 05:50 | 37.78023 | -6.45379 | 8997 ft | 213 kts | 118° |
| 2026-05-07 05:51 | 37.77321 | -6.43724 | 8999 ft | 214 kts | 118° |
| 2026-05-07 05:51 | 37.76618 | -6.42059 | 8997 ft | 215 kts | 117° |
| 2026-05-07 05:51 | 37.75925 | -6.40417 | 9000 ft | 215 kts | 117° |
| 2026-05-07 05:51 | 37.75220 | -6.38744 | 8994 ft | 215 kts | 117° |
| 2026-05-07 05:52 | 37.74529 | -6.37103 | 9001 ft | 214 kts | 118° |
| 2026-05-07 05:52 | 37.73823 | -6.35444 | 8999 ft | 215 kts | 118° |
| 2026-05-07 05:52 | 37.73119 | -6.33779 | 9001 ft | 214 kts | 117° |
| 2026-05-07 05:52 | 37.72420 | -6.32123 | 9002 ft | 214 kts | 117° |
| 2026-05-07 05:53 | 37.71720 | -6.30469 | 9002 ft | 214 kts | 117° |
| 2026-05-07 05:53 | 37.71017 | -6.28808 | 9007 ft | 215 kts | 118° |
| 2026-05-07 05:53 | 37.70308 | -6.27143 | 9014 ft | 215 kts | 117° |
| 2026-05-07 05:53 | 37.69613 | -6.25487 | 9001 ft | 214 kts | 117° |
| 2026-05-07 05:54 | 37.68907 | -6.23827 | 9002 ft | 215 kts | 118° |
| 2026-05-07 05:54 | 37.68205 | -6.22180 | 9003 ft | 215 kts | 117° |
| 2026-05-07 05:54 | 37.67498 | -6.20513 | 9009 ft | 215 kts | 117° |
| 2026-05-07 05:54 | 37.66791 | -6.18855 | 9004 ft | 214 kts | 117° |
| 2026-05-07 05:55 | 37.66090 | -6.17188 | 9006 ft | 215 kts | 117° |
| 2026-05-07 05:55 | 37.65382 | -6.15513 | 9005 ft | 215 kts | 118° |
| 2026-05-07 05:55 | 37.64910 | -6.14414 | 9009 ft | 215 kts | 118° |
| 2026-05-07 05:55 | 37.64196 | -6.12752 | 9009 ft | 214 kts | 118° |
| 2026-05-07 05:56 | 37.63487 | -6.11088 | 9016 ft | 215 kts | 118° |
| 2026-05-07 05:56 | 37.62781 | -6.09423 | 9002 ft | 215 kts | 118° |
| 2026-05-07 05:56 | 37.61842 | -6.07220 | 9001 ft | 215 kts | 118° |
| 2026-05-07 05:56 | 37.61364 | -6.06100 | 9000 ft | 215 kts | 118° |
| 2026-05-07 05:57 | 37.60652 | -6.04434 | 9003 ft | 216 kts | 118° |
| 2026-05-07 05:57 | 37.59940 | -6.02765 | 9002 ft | 216 kts | 118° |
| 2026-05-07 05:57 | 37.59229 | -6.01097 | 8999 ft | 216 kts | 118° |
| 2026-05-07 05:57 | 37.58515 | -5.99431 | 8997 ft | 215 kts | 118° |
| 2026-05-07 05:58 | 37.57814 | -5.97792 | 8997 ft | 215 kts | 118° |
| 2026-05-07 05:58 | 37.57106 | -5.96137 | 8998 ft | 214 kts | 118° |
| 2026-05-07 05:58 | 37.56400 | -5.94488 | 8998 ft | 214 kts | 118° |
| 2026-05-07 05:58 | 37.55694 | -5.92837 | 8997 ft | 214 kts | 118° |
| 2026-05-07 05:59 | 37.54986 | -5.91188 | 8997 ft | 214 kts | 118° |
| 2026-05-07 05:59 | 37.54276 | -5.89532 | 8997 ft | 214 kts | 118° |
| 2026-05-07 05:59 | 37.53566 | -5.87877 | 8997 ft | 215 kts | 118° |
| 2026-05-07 05:59 | 37.52856 | -5.86221 | 8997 ft | 215 kts | 118° |
| 2026-05-07 06:00 | 37.52144 | -5.84563 | 8998 ft | 215 kts | 118° |
| 2026-05-07 06:00 | 37.51430 | -5.82900 | 8997 ft | 215 kts | 118° |
| 2026-05-07 06:00 | 37.50717 | -5.81241 | 8998 ft | 215 kts | 118° |
| 2026-05-07 06:00 | 37.50005 | -5.79585 | 8997 ft | 215 kts | 118° |
| 2026-05-07 06:01 | 37.49303 | -5.77954 | 8998 ft | 215 kts | 118° |
| 2026-05-07 06:01 | 37.48590 | -5.76298 | 8996 ft | 214 kts | 118° |
| 2026-05-07 06:01 | 37.47879 | -5.74649 | 8996 ft | 214 kts | 118° |
| 2026-05-07 06:01 | 37.47168 | -5.72999 | 8996 ft | 214 kts | 118° |
| 2026-05-07 06:02 | 37.46455 | -5.71346 | 8997 ft | 215 kts | 118° |
| 2026-05-07 06:02 | 37.45741 | -5.69689 | 8997 ft | 215 kts | 118° |
| 2026-05-07 06:02 | 37.45027 | -5.68033 | 8997 ft | 215 kts | 118° |
| 2026-05-07 06:02 | 37.44311 | -5.66376 | 8995 ft | 214 kts | 118° |
| 2026-05-07 06:03 | 37.43600 | -5.64733 | 8997 ft | 213 kts | 118° |
| 2026-05-07 06:03 | 37.42892 | -5.63096 | 8996 ft | 213 kts | 118° |
| 2026-05-07 06:03 | 37.42183 | -5.61456 | 8995 ft | 213 kts | 118° |
| 2026-05-07 06:03 | 37.41483 | -5.59838 | 8997 ft | 213 kts | 118° |
| 2026-05-07 06:04 | 37.40771 | -5.58193 | 8997 ft | 214 kts | 118° |
| 2026-05-07 06:04 | 37.40058 | -5.56545 | 8996 ft | 214 kts | 118° |
| 2026-05-07 06:04 | 37.39344 | -5.54900 | 8997 ft | 214 kts | 118° |
| 2026-05-07 06:04 | 37.38628 | -5.53250 | 8999 ft | 214 kts | 118° |
| 2026-05-07 06:05 | 37.37913 | -5.51600 | 8999 ft | 215 kts | 118° |
| 2026-05-07 06:05 | 37.37196 | -5.49948 | 9001 ft | 215 kts | 118° |
| 2026-05-07 06:05 | 37.36479 | -5.48297 | 8999 ft | 215 kts | 118° |
| 2026-05-07 06:05 | 37.35761 | -5.46645 | 9000 ft | 215 kts | 118° |
| 2026-05-07 06:06 | 37.35045 | -5.44997 | 8999 ft | 215 kts | 118° |
| 2026-05-07 06:06 | 37.34338 | -5.43373 | 8999 ft | 215 kts | 118° |
| 2026-05-07 06:06 | 37.33630 | -5.41743 | 9000 ft | 215 kts | 118° |
| 2026-05-07 06:06 | 37.32909 | -5.40087 | 8996 ft | 215 kts | 118° |
| 2026-05-07 06:07 | 37.32192 | -5.38442 | 9000 ft | 215 kts | 118° |
| 2026-05-07 06:07 | 37.31472 | -5.36789 | 8999 ft | 215 kts | 118° |
| 2026-05-07 06:07 | 37.30752 | -5.35140 | 8998 ft | 215 kts | 118° |
| 2026-05-07 06:07 | 37.30031 | -5.33487 | 8997 ft | 215 kts | 118° |
| 2026-05-07 06:08 | 37.29312 | -5.31837 | 8998 ft | 216 kts | 118° |
| 2026-05-07 06:08 | 37.28597 | -5.30200 | 8998 ft | 215 kts | 118° |
| 2026-05-07 06:08 | 37.27876 | -5.28551 | 8999 ft | 215 kts | 118° |
| 2026-05-07 06:08 | 37.27156 | -5.26903 | 8998 ft | 215 kts | 119° |
| 2026-05-07 06:09 | 37.26435 | -5.25254 | 8999 ft | 215 kts | 118° |
| 2026-05-07 06:09 | 37.25716 | -5.23610 | 8997 ft | 215 kts | 118° |
| 2026-05-07 06:09 | 37.24996 | -5.21967 | 8997 ft | 215 kts | 118° |
| 2026-05-07 06:09 | 37.24286 | -5.20346 | 8997 ft | 215 kts | 118° |
| 2026-05-07 06:10 | 37.23565 | -5.18703 | 8997 ft | 215 kts | 118° |
| 2026-05-07 06:10 | 37.22842 | -5.17052 | 8997 ft | 215 kts | 118° |
| 2026-05-07 06:10 | 37.22117 | -5.15403 | 8996 ft | 215 kts | 118° |
| 2026-05-07 06:10 | 37.21398 | -5.13759 | 8995 ft | 215 kts | 118° |
| 2026-05-07 06:11 | 37.20676 | -5.12116 | 8998 ft | 215 kts | 118° |
| 2026-05-07 06:11 | 37.19952 | -5.10470 | 8998 ft | 215 kts | 118° |
| 2026-05-07 06:11 | 37.19227 | -5.08821 | 8998 ft | 215 kts | 118° |
| 2026-05-07 06:11 | 37.18505 | -5.07178 | 8998 ft | 215 kts | 118° |
| 2026-05-07 06:12 | 37.17780 | -5.05534 | 9007 ft | 215 kts | 119° |
| 2026-05-07 06:12 | 37.17066 | -5.03922 | 9001 ft | 213 kts | 118° |
| 2026-05-07 06:12 | 37.16351 | -5.02287 | 8997 ft | 213 kts | 118° |
| 2026-05-07 06:12 | 37.15636 | -5.00660 | 8997 ft | 214 kts | 119° |
| 2026-05-07 06:13 | 37.14913 | -4.99029 | 8999 ft | 214 kts | 119° |
| 2026-05-07 06:13 | 37.14190 | -4.97390 | 9003 ft | 215 kts | 118° |
| 2026-05-07 06:13 | 37.13465 | -4.95742 | 9001 ft | 216 kts | 118° |
| 2026-05-07 06:13 | 37.12747 | -4.94112 | 9001 ft | 215 kts | 119° |
| 2026-05-07 06:14 | 37.12020 | -4.92469 | 9001 ft | 216 kts | 119° |
| 2026-05-07 06:14 | 37.11291 | -4.90823 | 8998 ft | 215 kts | 119° |
| 2026-05-07 06:14 | 37.10564 | -4.89190 | 9002 ft | 215 kts | 119° |
| 2026-05-07 06:14 | 37.09842 | -4.87550 | 8998 ft | 214 kts | 118° |
| 2026-05-07 06:15 | 37.09122 | -4.85916 | 8997 ft | 214 kts | 119° |
| 2026-05-07 06:15 | 37.08398 | -4.84284 | 8996 ft | 214 kts | 119° |
| 2026-05-07 06:15 | 37.07683 | -4.82675 | 8997 ft | 214 kts | 120° |
| 2026-05-07 06:15 | 37.06747 | -4.81260 | 8994 ft | 209 kts | 148° |
| 2026-05-07 06:16 | 37.05516 | -4.80381 | 8994 ft | 198 kts | 173° |
| 2026-05-07 06:16 | 37.04221 | -4.80071 | 8995 ft | 181 kts | 195° |
| 2026-05-07 06:16 | 37.02981 | -4.80077 | 8998 ft | 178 kts | 197° |
| 2026-05-07 06:16 | 37.01734 | -4.80061 | 9001 ft | 179 kts | 197° |
| 2026-05-07 06:17 | 37.00486 | -4.80045 | 9002 ft | 179 kts | 197° |
| 2026-05-07 06:17 | 36.99235 | -4.80031 | 9003 ft | 180 kts | 197° |
| 2026-05-07 06:17 | 36.97979 | -4.80017 | 9003 ft | 181 kts | 197° |
| 2026-05-07 06:17 | 36.96729 | -4.80009 | 9004 ft | 180 kts | 197° |
| 2026-05-07 06:18 | 36.95475 | -4.79989 | 9000 ft | 179 kts | 196° |
| 2026-05-07 06:18 | 36.94243 | -4.79973 | 9003 ft | 180 kts | 197° |
| 2026-05-07 06:18 | 36.92975 | -4.79880 | 8993 ft | 191 kts | 182° |
| 2026-05-07 06:18 | 36.91676 | -4.79319 | 8997 ft | 199 kts | 172° |
| 2026-05-07 06:19 | 36.90379 | -4.78728 | 9002 ft | 198 kts | 173° |
| 2026-05-07 06:19 | 36.89078 | -4.78163 | 8999 ft | 197 kts | 174° |
| 2026-05-07 06:19 | 36.87785 | -4.77603 | 9003 ft | 196 kts | 174° |
| 2026-05-07 06:19 | 36.86588 | -4.76786 | 8992 ft | 212 kts | 147° |
| 2026-05-07 06:20 | 36.85585 | -4.75415 | 9002 ft | 214 kts | 134° |
| 2026-05-07 06:20 | 36.84634 | -4.74004 | 8995 ft | 211 kts | 135° |
| 2026-05-07 06:20 | 36.83663 | -4.72640 | 9000 ft | 211 kts | 136° |
| 2026-05-07 06:20 | 36.82662 | -4.71256 | 9000 ft | 211 kts | 137° |
| 2026-05-07 06:21 | 36.81703 | -4.69897 | 8997 ft | 211 kts | 135° |
| 2026-05-07 06:21 | 36.80727 | -4.68524 | 9000 ft | 212 kts | 136° |
| 2026-05-07 06:21 | 36.79742 | -4.67127 | 8997 ft | 214 kts | 135° |
| 2026-05-07 06:21 | 36.78758 | -4.65740 | 8999 ft | 214 kts | 136° |
| 2026-05-07 06:22 | 36.77765 | -4.64352 | 8996 ft | 212 kts | 136° |
| 2026-05-07 06:22 | 36.75801 | -4.61599 | 8996 ft | 211 kts | 136° |
| 2026-05-07 06:22 | 36.74823 | -4.60228 | 8997 ft | 212 kts | 136° |
| 2026-05-07 06:23 | 36.73841 | -4.58855 | 8997 ft | 212 kts | 136° |
| 2026-05-07 06:23 | 36.72873 | -4.57493 | 8995 ft | 212 kts | 136° |
| 2026-05-07 06:23 | 36.71888 | -4.56106 | 8996 ft | 213 kts | 136° |
| 2026-05-07 06:23 | 36.70902 | -4.54725 | 8997 ft | 212 kts | 136° |
| 2026-05-07 06:24 | 36.69919 | -4.53348 | 8997 ft | 213 kts | 136° |
| 2026-05-07 06:24 | 36.68946 | -4.51985 | 8997 ft | 213 kts | 136° |
| 2026-05-07 06:24 | 36.67963 | -4.50610 | 8996 ft | 213 kts | 136° |
| 2026-05-07 06:24 | 36.66978 | -4.49232 | 8997 ft | 213 kts | 136° |
| 2026-05-07 06:25 | 36.65993 | -4.47855 | 8996 ft | 213 kts | 136° |
| 2026-05-07 06:25 | 36.65009 | -4.46478 | 8996 ft | 213 kts | 136° |
| 2026-05-07 06:25 | 36.64025 | -4.45104 | 8996 ft | 213 kts | 136° |
| 2026-05-07 06:25 | 36.63042 | -4.43730 | 8995 ft | 213 kts | 136° |
| 2026-05-07 06:26 | 36.62058 | -4.42357 | 8995 ft | 213 kts | 136° |
| 2026-05-07 06:26 | 36.61071 | -4.40979 | 8995 ft | 213 kts | 136° |
| 2026-05-07 06:26 | 36.60084 | -4.39601 | 8996 ft | 213 kts | 136° |
| 2026-05-07 06:26 | 36.59125 | -4.38265 | 8996 ft | 213 kts | 136° |
| 2026-05-07 06:27 | 36.58127 | -4.36872 | 8996 ft | 213 kts | 136° |
| 2026-05-07 06:27 | 36.57152 | -4.35515 | 8996 ft | 213 kts | 136° |
| 2026-05-07 06:27 | 36.56168 | -4.34143 | 8996 ft | 213 kts | 136° |
| 2026-05-07 06:27 | 36.55179 | -4.32767 | 8996 ft | 213 kts | 136° |
| 2026-05-07 06:28 | 36.54196 | -4.31398 | 8995 ft | 213 kts | 136° |
| 2026-05-07 06:28 | 36.53209 | -4.30025 | 8995 ft | 213 kts | 136° |
| 2026-05-07 06:28 | 36.52222 | -4.28652 | 8997 ft | 212 kts | 136° |
| 2026-05-07 06:28 | 36.51236 | -4.27282 | 8996 ft | 212 kts | 136° |
| 2026-05-07 06:29 | 36.50251 | -4.25912 | 8996 ft | 212 kts | 136° |
| 2026-05-07 06:29 | 36.49264 | -4.24543 | 8996 ft | 212 kts | 136° |
| 2026-05-07 06:29 | 36.48277 | -4.23171 | 8996 ft | 212 kts | 136° |
| 2026-05-07 06:29 | 36.47289 | -4.21801 | 8995 ft | 212 kts | 136° |
| 2026-05-07 06:30 | 36.46317 | -4.20452 | 8995 ft | 212 kts | 136° |
| 2026-05-07 06:30 | 36.45329 | -4.19082 | 8997 ft | 212 kts | 136° |
| 2026-05-07 06:30 | 36.44342 | -4.17715 | 8996 ft | 212 kts | 136° |
| 2026-05-07 06:30 | 36.43357 | -4.16350 | 8996 ft | 212 kts | 136° |
| 2026-05-07 06:31 | 36.42599 | -4.14787 | 8990 ft | 211 kts | 102° |
| 2026-05-07 06:31 | 36.42608 | -4.13065 | 8991 ft | 190 kts | 58° |
| 2026-05-07 06:31 | 36.43288 | -4.11867 | 8994 ft | 153 kts | 15° |
| 2026-05-07 06:31 | 36.44164 | -4.11624 | 8995 ft | 115 kts | 332° |
| 2026-05-07 06:32 | 36.44777 | -4.12141 | 9002 ft | 105 kts | 311° |
| 2026-05-07 06:32 | 36.45325 | -4.12758 | 8958 ft | 129 kts | 314° |
| 2026-05-07 06:32 | 36.46033 | -4.13600 | 8835 ft | 154 kts | 312° |
| 2026-05-07 06:32 | 36.46823 | -4.14580 | 8692 ft | 165 kts | 312° |
| 2026-05-07 06:33 | 36.47641 | -4.15605 | 8545 ft | 169 kts | 312° |
| 2026-05-07 06:33 | 36.48473 | -4.16651 | 8400 ft | 171 kts | 312° |
| 2026-05-07 06:33 | 36.49311 | -4.17707 | 8250 ft | 171 kts | 311° |
| 2026-05-07 06:33 | 36.50090 | -4.18825 | 8099 ft | 171 kts | 307° |
| 2026-05-07 06:34 | 36.50846 | -4.19962 | 7952 ft | 170 kts | 307° |
| 2026-05-07 06:34 | 36.51598 | -4.21098 | 7795 ft | 170 kts | 307° |
| 2026-05-07 06:34 | 36.52339 | -4.22248 | 7651 ft | 170 kts | 304° |
| 2026-05-07 06:34 | 36.53035 | -4.23416 | 7503 ft | 170 kts | 304° |
| 2026-05-07 06:35 | 36.53735 | -4.24599 | 7351 ft | 170 kts | 304° |
| 2026-05-07 06:35 | 36.54414 | -4.25795 | 7201 ft | 169 kts | 299° |
| 2026-05-07 06:35 | 36.54984 | -4.27077 | 7016 ft | 170 kts | 296° |
| 2026-05-07 06:35 | 36.55542 | -4.28389 | 6767 ft | 172 kts | 294° |
| 2026-05-07 06:36 | 36.56036 | -4.29748 | 6535 ft | 172 kts | 291° |
| 2026-05-07 06:36 | 36.56507 | -4.31123 | 6288 ft | 172 kts | 291° |
| 2026-05-07 06:36 | 36.56974 | -4.32494 | 5919 ft | 176 kts | 291° |
| 2026-05-07 06:36 | 36.57412 | -4.33919 | 5539 ft | 173 kts | 287° |
| 2026-05-07 06:37 | 36.57767 | -4.35211 | 5149 ft | 145 kts | 286° |
| 2026-05-07 06:37 | 36.58105 | -4.36336 | 4759 ft | 134 kts | 290° |
| 2026-05-07 06:37 | 36.58564 | -4.37277 | 4352 ft | 123 kts | 307° |
| 2026-05-07 06:37 | 36.59088 | -4.38085 | 3953 ft | 118 kts | 308° |
| 2026-05-07 06:38 | 36.59616 | -4.38860 | 3565 ft | 116 kts | 308° |
| 2026-05-07 06:38 | 36.60139 | -4.39622 | 3194 ft | 117 kts | 309° |
| 2026-05-07 06:38 | 36.60684 | -4.40378 | 2814 ft | 117 kts | 310° |
| 2026-05-07 06:38 | 36.61222 | -4.41139 | 2436 ft | 116 kts | 311° |
| 2026-05-07 06:39 | 36.61580 | -4.41636 | 2188 ft | 116 kts | 313° |
| 2026-05-07 06:39 | 36.62115 | -4.42378 | 1811 ft | 114 kts | 312° |
| 2026-05-07 06:39 | 36.62633 | -4.43112 | 1430 ft | 112 kts | 313° |
| 2026-05-07 06:39 | 36.63154 | -4.43837 | 1060 ft | 112 kts | 313° |
| 2026-05-07 06:40 | 36.63632 | -4.44510 | 914 ft | 98 kts | 313° |
| 2026-05-07 06:40 | 36.64065 | -4.45117 | 798 ft | 88 kts | 312° |
| 2026-05-07 06:40 | 36.64451 | -4.45652 | 684 ft | 79 kts | 313° |
| 2026-05-07 06:40 | 36.64804 | -4.46144 | 585 ft | 73 kts | 313° |
| 2026-05-07 06:41 | 36.65132 | -4.46603 | 496 ft | 69 kts | 312° |
| 2026-05-07 06:41 | 36.65438 | -4.47030 | 418 ft | 64 kts | 313° |
| 2026-05-07 06:41 | 36.65781 | -4.47491 | 362 ft | 78 kts | 312° |
| 2026-05-07 06:41 | 36.66149 | -4.48019 | 218 ft | 78 kts | 310° |
| 2026-05-07 06:42 | 36.66498 | -4.48511 | 85 ft | 77 kts | 312° |
| 2026-05-07 06:42 | 36.66797 | -4.48926 | 42 ft | 53 kts | 309° |
| 2026-05-07 06:42 | 36.66945 | -4.49148 | 45 ft | 18 kts | 309° |
| 2026-05-07 06:42 | 36.67020 | -4.49249 | 45 ft | 20 kts | 314° |
| 2026-05-07 06:43 | 36.67137 | -4.49411 | 46 ft | 19 kts | 309° |
| 2026-05-07 06:43 | 36.67152 | -4.49396 | 46 ft | 6 kts | 121° |
| 2026-05-07 06:43 | 36.67119 | -4.49288 | 45 ft | 17 kts | 99° |
| 2026-05-07 06:43 | 36.67100 | -4.49176 | 42 ft | 13 kts | 103° |
| 2026-05-07 06:44 | 36.67131 | -4.49070 | 40 ft | 10 kts | 46° |
| 2026-05-07 06:44 | 36.67168 | -4.49013 | 41 ft | 9 kts | 69° |
| 2026-05-07 06:44 | 36.67205 | -4.48951 | 41 ft | 8 kts | 42° |
| 2026-05-07 06:44 | 36.67233 | -4.48919 | 41 ft | 0 kts | 42° |